Time;durP1;ratioP1;P1;durP2;ratioP2;P2;SDS_P1;SDS_P2;PMS_P1;PMS_P2;Temp;Humidity;BMP_temperature;BMP_pressure;BME280_temperature;BME280_humidity;BME280_pressure;Samples;Min_cycle;Max_cycle;Signal;HPM_P1;HPM_P2
2022/12/05 00:00:18;;;;;;;6.10;4.50;;;;;;;;;;108201;1274;22593;-31
2022/12/05 00:03:10;;;;;;;7.10;4.80;;;;;;;;;;108230;1271;25395;-31
2022/12/05 00:05:44;;;;;;;7.70;5.00;;;;;;;;;;108210;1269;23291;-31
2022/12/05 00:08:16;;;;;;;6.40;4.60;;;;;;;;;;108249;1271;24110;-31
2022/12/05 00:10:48;;;;;;;6.10;4.70;;;;;;;;;;108181;1269;27451;-31
2022/12/05 00:13:21;;;;;;;5.60;4.00;;;;;;;;;;108243;1271;24325;-30
2022/12/05 00:15:53;;;;;;;6.10;4.10;;;;;;;;;;108244;1271;26290;-31
2022/12/05 00:18:25;;;;;;;5.90;4.60;;;;;;;;;;108277;1271;24678;-30
2022/12/05 00:20:58;;;;;;;6.10;4.60;;;;;;;;;;108215;1273;22568;-30
2022/12/05 00:23:30;;;;;;;6.40;4.30;;;;;;;;;;108225;1271;26489;-30
2022/12/05 00:26:05;;;;;;;6.40;4.30;;;;;;;;;;108225;1266;24222;-31
2022/12/05 00:28:38;;;;;;;6.20;4.80;;;;;;;;;;108223;1271;24642;-31
2022/12/05 00:31:13;;;;;;;5.80;3.80;;;;;;;;;;108263;1266;25164;-31
2022/12/05 00:33:46;;;;;;;6.10;4.20;;;;;;;;;;108307;1266;24605;-31
2022/12/05 00:36:23;;;;;;;6.90;4.20;;;;;;;;;;108294;1265;25716;-30
2022/12/05 00:38:58;;;;;;;5.30;4.20;;;;;;;;;;108317;1273;26318;-30
2022/12/05 00:41:31;;;;;;;5.90;4.40;;;;;;;;;;108175;1271;26218;-31
2022/12/05 00:44:05;;;;;;;6.00;4.30;;;;;;;;;;108260;1271;23737;-31
2022/12/05 00:46:38;;;;;;;6.80;5.20;;;;;;;;;;108230;1271;23137;-31
2022/12/05 00:49:12;;;;;;;5.60;4.20;;;;;;;;;;108189;1269;25289;-30
2022/12/05 00:51:45;;;;;;;6.50;5.10;;;;;;;;;;108294;1266;26219;-31
2022/12/05 00:54:18;;;;;;;5.60;4.10;;;;;;;;;;108223;1271;22934;-30
2022/12/05 00:56:55;;;;;;;6.70;4.70;;;;;;;;;;108224;1268;25826;-31
2022/12/05 00:59:27;;;;;;;6.60;4.70;;;;;;;;;;108244;1268;25319;-31
2022/12/05 01:01:59;;;;;;;6.00;4.50;;;;;;;;;;108190;1271;26420;-31
2022/12/05 01:04:32;;;;;;;6.70;4.40;;;;;;;;;;108201;1267;22534;-31
2022/12/05 01:07:04;;;;;;;6.20;4.40;;;;;;;;;;108224;1271;25390;-31
2022/12/05 01:09:36;;;;;;;6.90;4.90;;;;;;;;;;108197;1271;23051;-31
2022/12/05 01:12:10;;;;;;;6.00;4.40;;;;;;;;;;108297;1273;22566;-31
2022/12/05 01:14:42;;;;;;;6.30;4.70;;;;;;;;;;108326;1266;22568;-31
2022/12/05 01:17:14;;;;;;;5.70;4.20;;;;;;;;;;108307;1266;25493;-30
2022/12/05 01:19:47;;;;;;;6.20;4.60;;;;;;;;;;108309;1272;23035;-30
2022/12/05 01:22:19;;;;;;;6.00;4.70;;;;;;;;;;108176;1268;24772;-30
2022/12/05 01:24:51;;;;;;;6.00;4.60;;;;;;;;;;108220;1265;25614;-30
2022/12/05 01:27:23;;;;;;;6.20;4.40;;;;;;;;;;108216;1271;25150;-30
2022/12/05 01:29:55;;;;;;;5.90;4.10;;;;;;;;;;108224;1268;24729;-31
2022/12/05 01:32:28;;;;;;;5.70;4.40;;;;;;;;;;108238;1273;22595;-31
2022/12/05 01:35:00;;;;;;;6.30;4.90;;;;;;;;;;108305;1272;22960;-31
2022/12/05 01:37:32;;;;;;;5.90;4.60;;;;;;;;;;108317;1266;25971;-30
2022/12/05 01:40:07;;;;;;;5.50;4.30;;;;;;;;;;108284;1273;25412;-31
2022/12/05 01:42:40;;;;;;;6.40;4.60;;;;;;;;;;108192;1271;24810;-31
2022/12/05 01:45:19;;;;;;;5.80;4.50;;;;;;;;;;108213;1265;23687;-31
2022/12/05 01:47:51;;;;;;;6.00;4.60;;;;;;;;;;108221;1271;25812;-31
2022/12/05 01:50:23;;;;;;;6.50;4.50;;;;;;;;;;108209;1268;24137;-31
2022/12/05 01:52:56;;;;;;;6.90;4.90;;;;;;;;;;108239;1266;22559;-31
2022/12/05 01:55:28;;;;;;;5.90;4.40;;;;;;;;;;108292;1265;22603;-31
2022/12/05 01:58:02;;;;;;;6.20;4.50;;;;;;;;;;108299;1266;25985;-31
2022/12/05 02:00:34;;;;;;;7.00;4.60;;;;;;;;;;108335;1265;24673;-31
2022/12/05 02:03:11;;;;;;;5.70;4.60;;;;;;;;;;108164;1273;22559;-31
2022/12/05 02:05:44;;;;;;;6.10;4.70;;;;;;;;;;108176;1271;22557;-31
2022/12/05 02:08:16;;;;;;;6.40;4.90;;;;;;;;;;108199;1268;24630;-30
2022/12/05 02:10:57;;;;;;;6.60;4.50;;;;;;;;;;108207;1271;23290;-31
2022/12/05 02:13:57;;;;;;;5.70;4.40;;;;;;;;;;108133;1271;25711;-31
2022/12/05 02:16:43;;;;;;;5.90;4.60;;;;;;;;;;108188;1271;23705;-30
2022/12/05 02:19:43;;;;;;;6.50;4.70;;;;;;;;;;108187;1266;24923;-30
2022/12/05 02:26:50;;;;;;;6.50;4.50;;;;;;;;;;104464;1316;561594;-31
2022/12/05 02:30:03;;;;;;;6.20;4.70;;;;;;;;;;107626;1285;24494;-31
2022/12/05 02:32:49;;;;;;;7.20;4.80;;;;;;;;;;107654;1281;24580;-31
2022/12/05 02:35:34;;;;;;;6.20;4.40;;;;;;;;;;107564;1277;22572;-31
2022/12/05 02:38:21;;;;;;;6.10;4.90;;;;;;;;;;107877;1277;24391;-31
2022/12/05 02:41:04;;;;;;;6.70;5.40;;;;;;;;;;107912;1274;24089;-31
2022/12/05 02:43:42;;;;;;;6.00;4.60;;;;;;;;;;107971;1277;26416;-31
2022/12/05 02:46:19;;;;;;;6.60;5.20;;;;;;;;;;108017;1276;22561;-31
2022/12/05 02:48:57;;;;;;;7.20;5.00;;;;;;;;;;108037;1269;22565;-31
2022/12/05 02:51:35;;;;;;;6.80;5.30;;;;;;;;;;108039;1269;24471;-31
2022/12/05 02:54:12;;;;;;;6.50;4.70;;;;;;;;;;108077;1269;25588;-30
2022/12/05 02:56:47;;;;;;;6.00;4.60;;;;;;;;;;107951;1270;25407;-32
2022/12/05 02:59:21;;;;;;;6.70;5.00;;;;;;;;;;107979;1269;23294;-30
2022/12/05 03:01:56;;;;;;;6.60;5.20;;;;;;;;;;107972;1269;26174;-30
2022/12/05 03:04:31;;;;;;;5.80;4.60;;;;;;;;;;107983;1276;24828;-30
2022/12/05 03:07:08;;;;;;;5.40;4.40;;;;;;;;;;108011;1274;24567;-31
2022/12/05 03:09:46;;;;;;;7.10;5.10;;;;;;;;;;108045;1269;22568;-30
2022/12/05 03:12:24;;;;;;;6.10;5.00;;;;;;;;;;108062;1269;24856;-31
2022/12/05 03:15:03;;;;;;;6.10;4.40;;;;;;;;;;108031;1268;25178;-31
2022/12/05 03:17:43;;;;;;;5.90;4.40;;;;;;;;;;107957;1271;24605;-31
2022/12/05 03:20:23;;;;;;;7.20;5.60;;;;;;;;;;107998;1271;22628;-31
2022/12/05 03:22:59;;;;;;;5.80;4.40;;;;;;;;;;107982;1275;24728;-31
2022/12/05 03:25:49;;;;;;;6.50;5.10;;;;;;;;;;107966;1272;25658;-31
2022/12/05 03:28:30;;;;;;;5.50;4.20;;;;;;;;;;108030;1269;26069;-31
2022/12/05 03:31:11;;;;;;;5.70;4.20;;;;;;;;;;108048;1269;22864;-31
2022/12/05 03:33:47;;;;;;;7.20;4.90;;;;;;;;;;108040;1276;24756;-31
2022/12/05 03:36:26;;;;;;;6.40;4.60;;;;;;;;;;107998;1269;24072;-31
2022/12/05 03:39:10;;;;;;;6.60;4.70;;;;;;;;;;107994;1274;26792;-31
2022/12/05 03:41:49;;;;;;;6.30;4.20;;;;;;;;;;107993;1274;26069;-31
2022/12/05 03:44:32;;;;;;;6.50;4.40;;;;;;;;;;107992;1275;25594;-30
2022/12/05 03:47:10;;;;;;;6.60;4.70;;;;;;;;;;107968;1268;24837;-30
2022/12/05 03:49:47;;;;;;;6.20;4.70;;;;;;;;;;108026;1269;25985;-31
2022/12/05 03:52:27;;;;;;;5.70;4.30;;;;;;;;;;108018;1270;25226;-31
2022/12/05 03:55:03;;;;;;;5.90;4.30;;;;;;;;;;108037;1269;25626;-31
2022/12/05 03:57:42;;;;;;;5.80;4.20;;;;;;;;;;108001;1275;23302;-31
2022/12/05 04:00:20;;;;;;;5.80;4.30;;;;;;;;;;107977;1276;23378;-31
2022/12/05 04:02:59;;;;;;;5.60;4.10;;;;;;;;;;108017;1270;23145;-31
2022/12/05 04:05:39;;;;;;;5.80;4.20;;;;;;;;;;107977;1277;23769;-31
2022/12/05 04:08:20;;;;;;;6.00;4.40;;;;;;;;;;107965;1271;26926;-31
2022/12/05 04:10:56;;;;;;;6.10;4.60;;;;;;;;;;108016;1271;24564;-31
2022/12/05 04:13:33;;;;;;;5.70;4.30;;;;;;;;;;108038;1269;23671;-31
2022/12/05 04:19:02;;;;;;;6.30;4.50;;;;;;;;;;107800;1274;22690;-29
2022/12/05 04:21:40;;;;;;;5.30;4.10;;;;;;;;;;107975;1271;22554;-30
2022/12/05 04:27:23;;;;;;;6.20;4.40;;;;;;;;;;107973;1275;25049;-30
2022/12/05 04:30:04;;;;;;;5.50;4.30;;;;;;;;;;107992;1269;28588;-30
2022/12/05 04:32:43;;;;;;;6.30;4.40;;;;;;;;;;108025;1268;25027;-30
2022/12/05 04:35:24;;;;;;;6.20;4.20;;;;;;;;;;108056;1269;24833;-31
2022/12/05 04:38:04;;;;;;;5.70;4.30;;;;;;;;;;107974;1269;25145;-31
2022/12/05 04:40:41;;;;;;;5.90;4.20;;;;;;;;;;107970;1270;23942;-30
2022/12/05 04:43:16;;;;;;;5.60;3.90;;;;;;;;;;107986;1271;23460;-31
2022/12/05 04:45:50;;;;;;;5.30;4.20;;;;;;;;;;107959;1271;24975;-31
2022/12/05 04:48:27;;;;;;;5.90;4.20;;;;;;;;;;107937;1275;26021;-29
2022/12/05 04:51:00;;;;;;;5.30;4.30;;;;;;;;;;108026;1276;25271;-30
2022/12/05 04:53:34;;;;;;;5.70;4.10;;;;;;;;;;108044;1268;25418;-30
2022/12/05 04:56:10;;;;;;;5.60;4.10;;;;;;;;;;108038;1269;22557;-30
2022/12/05 04:58:42;;;;;;;5.70;4.30;;;;;;;;;;108021;1269;23868;-31
2022/12/05 05:01:21;;;;;;;5.80;4.20;;;;;;;;;;107982;1271;23322;-31
2022/12/05 05:03:59;;;;;;;5.70;4.30;;;;;;;;;;108004;1271;24580;-31
2022/12/05 05:06:32;;;;;;;5.70;4.10;;;;;;;;;;107965;1269;25897;-31
2022/12/05 05:09:04;;;;;;;6.20;4.30;;;;;;;;;;107965;1271;24922;-31
2022/12/05 05:11:38;;;;;;;5.50;3.90;;;;;;;;;;107904;1272;24008;-30
2022/12/05 05:14:10;;;;;;;5.20;3.80;;;;;;;;;;108064;1269;22595;-31
2022/12/05 05:16:46;;;;;;;5.60;4.10;;;;;;;;;;108052;1269;25107;-31
2022/12/05 05:19:18;;;;;;;5.30;3.80;;;;;;;;;;108003;1268;24166;-30
2022/12/05 05:21:51;;;;;;;5.50;3.80;;;;;;;;;;107986;1275;22994;-30
2022/12/05 05:24:26;;;;;;;5.40;3.70;;;;;;;;;;107971;1269;24465;-30
2022/12/05 05:26:58;;;;;;;5.80;4.10;;;;;;;;;;108008;1271;25402;-30
2022/12/05 05:29:30;;;;;;;5.50;4.20;;;;;;;;;;107958;1271;23979;-30
2022/12/05 05:32:03;;;;;;;6.10;4.30;;;;;;;;;;108065;1268;22879;-30
2022/12/05 05:34:35;;;;;;;5.40;4.00;;;;;;;;;;108024;1269;25537;-31
2022/12/05 05:37:07;;;;;;;6.60;4.10;;;;;;;;;;108050;1272;25533;-31
2022/12/05 05:39:39;;;;;;;5.40;4.00;;;;;;;;;;107963;1269;24868;-31
2022/12/05 05:42:12;;;;;;;5.20;3.80;;;;;;;;;;107949;1269;25235;-31
2022/12/05 05:44:44;;;;;;;5.20;3.90;;;;;;;;;;108010;1274;23148;-32
2022/12/05 05:47:16;;;;;;;6.20;4.20;;;;;;;;;;108054;1271;24591;-32
2022/12/05 05:49:48;;;;;;;6.20;4.50;;;;;;;;;;108044;1267;25946;-32
2022/12/05 05:52:21;;;;;;;6.20;4.40;;;;;;;;;;108410;1266;24822;-32
2022/12/05 05:54:53;;;;;;;10.90;7.80;;;;;;;;;;108459;1259;24592;-32
2022/12/05 05:57:25;;;;;;;20.40;16.00;;;;;;;;;;108465;1265;24395;-32
2022/12/05 05:59:58;;;;;;;18.10;13.90;;;;;;;;;;108355;1266;24916;-33
2022/12/05 06:02:35;;;;;;;20.40;14.60;;;;;;;;;;108379;1266;23258;-32
2022/12/05 06:05:09;;;;;;;17.60;14.00;;;;;;;;;;108377;1265;22565;-31
2022/12/05 06:07:41;;;;;;;17.80;14.90;;;;;;;;;;108139;1268;24405;-30
2022/12/05 06:10:14;;;;;;;20.10;15.10;;;;;;;;;;108152;1268;24894;-30
2022/12/05 06:12:46;;;;;;;18.20;14.30;;;;;;;;;;108329;1265;25333;-29
2022/12/05 06:15:19;;;;;;;16.40;13.10;;;;;;;;;;108311;1266;24815;-31
2022/12/05 06:17:52;;;;;;;16.10;13.00;;;;;;;;;;108575;1265;24318;-31
2022/12/05 06:20:24;;;;;;;16.40;13.10;;;;;;;;;;108474;1265;23857;-34
2022/12/05 06:22:56;;;;;;;16.20;12.70;;;;;;;;;;108464;1268;23100;-33
2022/12/05 06:25:29;;;;;;;15.20;12.80;;;;;;;;;;108370;1274;24705;-33
2022/12/05 06:28:01;;;;;;;17.20;12.60;;;;;;;;;;108258;1267;23249;-32
2022/12/05 06:30:33;;;;;;;16.10;12.00;;;;;;;;;;108179;1265;24942;-31
2022/12/05 06:33:06;;;;;;;15.00;11.10;;;;;;;;;;108303;1265;24825;-31
2022/12/05 06:35:39;;;;;;;15.00;11.30;;;;;;;;;;108262;1265;23003;-31
2022/12/05 06:38:10;;;;;;;;;;;;;;;;;;108266;1272;24858;-33
2022/12/05 06:40:44;;;;;;;16.90;10.30;;;;;;;;;;108435;1258;24991;-29
2022/12/05 06:43:17;;;;;;;12.20;9.80;;;;;;;;;;107865;1278;24913;-30
2022/12/05 06:45:49;;;;;;;14.70;10.40;;;;;;;;;;107896;1277;25661;-30
2022/12/05 06:48:21;;;;;;;11.90;9.70;;;;;;;;;;107883;1278;24957;-29
2022/12/05 06:50:55;;;;;;;12.10;9.80;;;;;;;;;;107861;1275;25585;-28
2022/12/05 06:53:28;;;;;;;11.50;8.70;;;;;;;;;;107984;1275;24013;-28
2022/12/05 06:56:03;;;;;;;12.00;8.80;;;;;;;;;;107985;1275;22568;-28
2022/12/05 06:58:36;;;;;;;12.10;9.90;;;;;;;;;;107962;1274;25380;-30
2022/12/05 07:04:04;;;;;;;11.10;8.60;;;;;;;;;;107942;1277;25402;-31
2022/12/05 07:06:37;;;;;;;10.00;7.90;;;;;;;;;;107850;1277;22566;-33
2022/12/05 07:09:08;;;;;;;;;;;;;;;;;;107815;1276;23253;-34
2022/12/05 07:11:40;;;;;;;9.70;8.00;;;;;;;;;;107844;1276;24267;-33
2022/12/05 07:14:12;;;;;;;10.70;8.20;;;;;;;;;;108018;1271;25600;-32
2022/12/05 07:16:45;;;;;;;12.80;8.40;;;;;;;;;;108070;1278;24676;-32
2022/12/05 07:19:17;;;;;;;10.70;8.10;;;;;;;;;;108025;1269;22568;-32
2022/12/05 07:21:50;;;;;;;11.40;7.60;;;;;;;;;;107984;1275;24512;-33
2022/12/05 07:24:23;;;;;;;10.80;7.60;;;;;;;;;;107972;1277;24656;-33
2022/12/05 07:26:55;;;;;;;11.30;7.90;;;;;;;;;;107982;1270;24355;-33
2022/12/05 07:29:27;;;;;;;9.40;7.40;;;;;;;;;;107886;1276;23514;-33
2022/12/05 07:32:00;;;;;;;10.40;7.00;;;;;;;;;;108007;1273;25806;-33
2022/12/05 07:34:33;;;;;;;11.70;7.10;;;;;;;;;;108084;1274;23648;-33
2022/12/05 07:37:05;;;;;;;8.50;6.90;;;;;;;;;;107981;1274;22560;-33
2022/12/05 07:39:38;;;;;;;9.80;7.30;;;;;;;;;;108073;1276;23543;-33
2022/12/05 07:42:10;;;;;;;11.00;7.40;;;;;;;;;;107921;1274;27062;-32
2022/12/05 07:44:43;;;;;;;10.50;7.40;;;;;;;;;;108032;1273;24889;-33
2022/12/05 07:47:15;;;;;;;9.10;6.90;;;;;;;;;;108036;1276;25579;-33
2022/12/05 07:49:47;;;;;;;8.90;6.80;;;;;;;;;;108101;1274;26266;-33
2022/12/05 07:52:20;;;;;;;8.70;6.90;;;;;;;;;;108084;1276;25585;-33
2022/12/05 07:54:52;;;;;;;9.30;6.20;;;;;;;;;;108071;1275;22568;-33
2022/12/05 07:57:24;;;;;;;9.40;6.90;;;;;;;;;;108051;1275;25532;-33
2022/12/05 07:59:57;;;;;;;7.90;6.00;;;;;;;;;;108113;1274;22597;-33
2022/12/05 08:02:29;;;;;;;8.40;6.40;;;;;;;;;;108135;1266;22581;-32
2022/12/05 08:05:02;;;;;;;7.70;6.50;;;;;;;;;;108142;1274;24295;-32
2022/12/05 08:07:35;;;;;;;7.90;5.80;;;;;;;;;;108077;1273;22921;-33
2022/12/05 08:10:10;;;;;;;8.30;5.80;;;;;;;;;;108168;1273;25520;-32
2022/12/05 08:12:42;;;;;;;8.60;6.30;;;;;;;;;;108002;1276;23935;-33
2022/12/05 08:15:15;;;;;;;9.10;6.20;;;;;;;;;;108068;1269;24916;-33
2022/12/05 08:17:47;;;;;;;8.40;6.30;;;;;;;;;;108047;1274;22567;-33
2022/12/05 08:20:19;;;;;;;8.40;5.90;;;;;;;;;;108220;1272;25594;-32
2022/12/05 08:22:55;;;;;;;8.90;6.00;;;;;;;;;;108202;1275;23481;-32
2022/12/05 08:25:27;;;;;;;7.20;5.10;;;;;;;;;;107924;1276;24377;-32
2022/12/05 08:27:59;;;;;;;7.10;5.60;;;;;;;;;;108094;1276;22563;-33
2022/12/05 08:30:32;;;;;;;8.40;5.60;;;;;;;;;;108059;1274;25892;-32
2022/12/05 08:33:05;;;;;;;7.20;5.50;;;;;;;;;;107968;1271;25014;-32
2022/12/05 08:35:39;;;;;;;6.60;4.80;;;;;;;;;;108085;1268;22559;-32
2022/12/05 08:38:12;;;;;;;7.40;5.60;;;;;;;;;;108052;1274;24900;-32
2022/12/05 08:40:46;;;;;;;6.60;5.00;;;;;;;;;;108018;1269;22587;-32
2022/12/05 08:43:18;;;;;;;8.00;5.90;;;;;;;;;;107996;1276;23810;-32
2022/12/05 08:45:54;;;;;;;7.20;5.30;;;;;;;;;;108007;1274;23134;-32
2022/12/05 08:48:29;;;;;;;7.40;5.40;;;;;;;;;;108017;1275;22558;-32
2022/12/05 08:51:08;;;;;;;6.90;5.30;;;;;;;;;;108113;1274;22598;-32
2022/12/05 08:53:42;;;;;;;7.20;5.00;;;;;;;;;;108089;1273;23882;-32
2022/12/05 08:56:15;;;;;;;6.80;5.10;;;;;;;;;;108067;1272;24641;-32
2022/12/05 08:58:47;;;;;;;7.00;4.90;;;;;;;;;;108115;1276;22574;-32
2022/12/05 09:01:24;;;;;;;6.80;5.50;;;;;;;;;;108114;1268;22847;-32
2022/12/05 09:03:57;;;;;;;7.20;5.40;;;;;;;;;;107965;1275;25660;-32
2022/12/05 09:06:29;;;;;;;6.70;4.90;;;;;;;;;;108038;1272;24099;-32
2022/12/05 09:09:05;;;;;;;7.60;5.40;;;;;;;;;;108050;1269;25578;-32
2022/12/05 09:11:44;;;;;;;6.50;5.00;;;;;;;;;;108016;1272;25610;-32
2022/12/05 09:14:17;;;;;;;7.20;5.30;;;;;;;;;;108010;1276;22601;-32
2022/12/05 09:16:50;;;;;;;6.90;5.10;;;;;;;;;;108053;1268;24525;-32
2022/12/05 09:19:22;;;;;;;;;;;;;;;;;;108080;1275;24595;-32
2022/12/05 09:21:55;;;;;;;6.40;4.90;;;;;;;;;;108123;1275;24460;-33
2022/12/05 09:24:27;;;;;;;6.80;4.90;;;;;;;;;;108077;1275;24401;-33
2022/12/05 09:27:00;;;;;;;7.00;5.00;;;;;;;;;;108067;1268;24545;-33
2022/12/05 09:29:32;;;;;;;5.60;4.40;;;;;;;;;;108048;1268;24357;-33
2022/12/05 09:32:05;;;;;;;7.30;5.30;;;;;;;;;;108015;1275;26156;-32
2022/12/05 09:34:38;;;;;;;7.30;5.20;;;;;;;;;;108008;1268;24270;-32
2022/12/05 09:37:10;;;;;;;6.60;4.80;;;;;;;;;;108077;1276;25286;-32
2022/12/05 09:39:44;;;;;;;7.70;4.90;;;;;;;;;;107767;1276;23300;-32
2022/12/05 09:42:36;;;;;;;7.20;5.40;;;;;;;;;;107727;1281;25279;-32
2022/12/05 09:45:28;;;;;;;6.30;4.80;;;;;;;;;;107833;1278;25512;-32
2022/12/05 09:48:10;;;;;;;6.80;5.00;;;;;;;;;;107967;1278;25409;-33
2022/12/05 09:50:49;;;;;;;6.80;5.00;;;;;;;;;;107930;1275;22571;-32
2022/12/05 09:53:29;;;;;;;6.90;5.00;;;;;;;;;;107847;1277;24889;-32
2022/12/05 09:56:06;;;;;;;6.40;4.90;;;;;;;;;;107787;1281;25544;-31
2022/12/05 09:58:46;;;;;;;7.00;5.20;;;;;;;;;;107788;1277;26136;-32
2022/12/05 10:01:31;;;;;;;6.50;5.00;;;;;;;;;;107805;1268;25998;-32
2022/12/05 10:04:22;;;;;;;7.00;5.20;;;;;;;;;;107745;1274;25605;-31
2022/12/05 10:07:05;;;;;;;8.30;5.40;;;;;;;;;;107928;1275;30859;-32
2022/12/05 10:09:56;;;;;;;6.70;5.10;;;;;;;;;;107802;1274;25889;-31
2022/12/05 10:12:51;;;;;;;6.60;5.00;;;;;;;;;;107843;1277;23672;-31
2022/12/05 10:15:34;;;;;;;7.10;5.30;;;;;;;;;;107784;1277;24252;-31
2022/12/05 10:18:18;;;;;;;6.80;4.80;;;;;;;;;;107762;1274;24819;-31
2022/12/05 10:20:54;;;;;;;6.80;5.00;;;;;;;;;;107739;1281;25410;-33
2022/12/05 10:23:29;;;;;;;7.00;5.10;;;;;;;;;;107811;1276;25930;-34
2022/12/05 10:26:07;;;;;;;6.30;4.70;;;;;;;;;;107753;1273;25275;-32
2022/12/05 10:28:45;;;;;;;6.60;4.80;;;;;;;;;;107822;1277;24833;-32
2022/12/05 10:31:22;;;;;;;6.20;5.00;;;;;;;;;;107885;1275;22790;-32
2022/12/05 10:34:05;;;;;;;7.10;5.30;;;;;;;;;;107890;1275;24919;-32
2022/12/05 10:36:37;;;;;;;6.80;5.20;;;;;;;;;;107753;1275;25417;-32
2022/12/05 10:39:11;;;;;;;6.50;4.90;;;;;;;;;;107249;1272;673932;-31
2022/12/05 10:41:43;;;;;;;6.80;5.30;;;;;;;;;;107774;1280;24387;-31
2022/12/05 10:44:16;;;;;;;6.40;4.60;;;;;;;;;;107743;1274;24722;-32
2022/12/05 10:46:48;;;;;;;6.50;4.80;;;;;;;;;;107688;1274;24886;-32
2022/12/05 10:49:21;;;;;;;7.10;5.60;;;;;;;;;;107787;1278;24322;-32
2022/12/05 10:51:56;;;;;;;7.00;4.90;;;;;;;;;;107824;1275;24395;-31
2022/12/05 10:54:34;;;;;;;6.20;5.20;;;;;;;;;;107884;1280;24321;-32
2022/12/05 10:57:24;;;;;;;6.60;4.90;;;;;;;;;;107720;1274;26056;-32
2022/12/05 10:59:57;;;;;;;7.00;4.90;;;;;;;;;;107820;1274;24356;-32
2022/12/05 11:02:33;;;;;;;6.70;4.70;;;;;;;;;;107762;1274;24254;-32
2022/12/05 11:05:07;;;;;;;6.10;4.80;;;;;;;;;;107613;1274;43750;-33
2022/12/05 11:07:49;;;;;;;7.10;5.00;;;;;;;;;;107746;1277;22577;-33
2022/12/05 11:10:33;;;;;;;6.70;5.10;;;;;;;;;;107894;1275;22580;-33
2022/12/05 11:13:24;;;;;;;7.50;5.70;;;;;;;;;;107815;1272;22584;-32
2022/12/05 11:15:56;;;;;;;7.30;5.10;;;;;;;;;;107834;1274;22570;-32
2022/12/05 11:18:34;;;;;;;6.80;5.00;;;;;;;;;;107743;1274;22574;-33
2022/12/05 11:21:18;;;;;;;6.90;4.90;;;;;;;;;;107750;1265;23606;-33
2022/12/05 11:23:51;;;;;;;6.80;5.70;;;;;;;;;;107724;1275;24120;-32
2022/12/05 11:26:37;;;;;;;8.90;5.70;;;;;;;;;;107604;1275;41517;-32
2022/12/05 11:29:33;;;;;;;6.90;5.40;;;;;;;;;;107800;1277;25868;-33
2022/12/05 11:32:16;;;;;;;7.50;5.60;;;;;;;;;;107817;1277;24927;-33
2022/12/05 11:34:54;;;;;;;6.80;5.40;;;;;;;;;;107815;1281;25519;-33
2022/12/05 11:37:31;;;;;;;8.00;5.40;;;;;;;;;;107751;1274;25282;-32
2022/12/05 11:40:15;;;;;;;6.80;5.50;;;;;;;;;;107828;1281;25436;-32
2022/12/05 11:43:12;;;;;;;7.20;5.10;;;;;;;;;;107808;1275;26057;-33
2022/12/05 11:45:59;;;;;;;7.00;5.40;;;;;;;;;;107772;1278;22722;-33
2022/12/05 11:48:51;;;;;;;7.40;6.10;;;;;;;;;;107775;1277;22591;-31
2022/12/05 11:51:40;;;;;;;7.10;5.60;;;;;;;;;;107853;1275;22581;-31
2022/12/05 11:54:38;;;;;;;8.50;6.00;;;;;;;;;;107879;1277;24228;-32
2022/12/05 11:57:21;;;;;;;7.80;5.80;;;;;;;;;;107701;1278;25530;-34
2022/12/05 12:00:20;;;;;;;6.90;5.70;;;;;;;;;;107745;1278;23595;-32
2022/12/05 12:03:48;;;;;;;7.90;5.60;;;;;;;;;;107748;1279;25601;-32
2022/12/05 12:06:46;;;;;;;7.50;4.90;;;;;;;;;;107703;1275;24121;-32
2022/12/05 12:09:42;;;;;;;6.80;5.30;;;;;;;;;;107764;1273;23172;-31
2022/12/05 12:12:26;;;;;;;8.10;6.00;;;;;;;;;;107841;1275;22603;-32
2022/12/05 12:15:15;;;;;;;6.70;5.60;;;;;;;;;;107839;1274;24360;-32
2022/12/05 12:17:56;;;;;;;8.00;6.40;;;;;;;;;;107775;1272;24471;-32
2022/12/05 12:20:54;;;;;;;7.00;5.70;;;;;;;;;;107806;1274;24893;-33
2022/12/05 12:23:46;;;;;;;8.00;6.00;;;;;;;;;;107784;1274;23406;-32
2022/12/05 12:26:28;;;;;;;7.60;6.30;;;;;;;;;;107774;1274;25920;-31
2022/12/05 12:29:13;;;;;;;7.60;5.90;;;;;;;;;;107838;1277;26083;-31
2022/12/05 12:32:05;;;;;;;7.30;5.70;;;;;;;;;;107887;1275;22583;-31
2022/12/05 12:35:13;;;;;;;7.60;6.10;;;;;;;;;;107790;1272;25970;-32
2022/12/05 12:38:01;;;;;;;7.00;5.80;;;;;;;;;;107798;1274;23116;-32
2022/12/05 12:40:43;;;;;;;7.70;6.40;;;;;;;;;;107736;1279;24267;-33
2022/12/05 12:43:33;;;;;;;7.50;5.60;;;;;;;;;;107728;1274;24861;-32
2022/12/05 12:46:25;;;;;;;7.10;5.70;;;;;;;;;;107786;1274;25391;-32
2022/12/05 12:49:23;;;;;;;7.40;5.60;;;;;;;;;;107685;1276;26101;-32
2022/12/05 12:52:01;;;;;;;7.30;5.60;;;;;;;;;;107829;1280;24432;-32
2022/12/05 12:54:58;;;;;;;7.10;5.40;;;;;;;;;;107814;1274;24946;-32
2022/12/05 12:57:39;;;;;;;7.30;6.00;;;;;;;;;;107819;1272;24530;-32
2022/12/05 13:00:26;;;;;;;7.20;6.00;;;;;;;;;;107739;1274;25400;-32
2022/12/05 13:03:09;;;;;;;7.20;5.90;;;;;;;;;;107752;1274;23752;-32
2022/12/05 13:05:47;;;;;;;8.70;5.50;;;;;;;;;;107769;1274;22751;-32
2022/12/05 13:08:28;;;;;;;6.70;5.60;;;;;;;;;;107760;1273;24478;-32
2022/12/05 13:11:02;;;;;;;7.80;5.90;;;;;;;;;;108012;1273;24825;-33
2022/12/05 13:13:40;;;;;;;7.40;5.90;;;;;;;;;;107860;1274;22579;-32
2022/12/05 13:16:24;;;;;;;7.20;5.40;;;;;;;;;;107805;1275;23674;-32
2022/12/05 13:18:58;;;;;;;9.00;6.50;;;;;;;;;;107801;1277;22580;-32
2022/12/05 13:21:31;;;;;;;10.30;7.60;;;;;;;;;;107776;1274;25991;-33
2022/12/05 13:24:04;;;;;;;8.60;6.70;;;;;;;;;;107764;1274;26071;-32
2022/12/05 13:26:35;;;;;;;;;;;;;;;;;;107800;1277;24004;-32
2022/12/05 13:29:15;;;;;;;10.10;7.60;;;;;;;;;;107786;1274;27377;-33
2022/12/05 13:31:48;;;;;;;9.80;7.20;;;;;;;;;;107953;1272;24123;-32
2022/12/05 13:34:46;;;;;;;8.20;6.30;;;;;;;;;;108049;1274;22598;-33
2022/12/05 13:43:22;;;;;;;8.70;6.70;;;;;;;;;;108041;1274;22564;-33
2022/12/05 13:46:12;;;;;;;9.50;7.30;;;;;;;;;;108049;1274;22567;-32
2022/12/05 13:48:50;;;;;;;10.20;7.50;;;;;;;;;;108075;1277;22578;-33
2022/12/05 13:51:32;;;;;;;11.10;8.70;;;;;;;;;;108156;1264;22579;-33
2022/12/05 13:54:13;;;;;;;9.50;7.00;;;;;;;;;;108147;1265;22570;-33
2022/12/05 13:56:57;;;;;;;7.70;6.30;;;;;;;;;;108101;1272;26169;-34
2022/12/05 14:00:06;;;;;;;7.60;6.10;;;;;;;;;;108110;1274;22583;-33
2022/12/05 14:03:03;;;;;;;11.90;9.10;;;;;;;;;;107885;1274;22583;-33
2022/12/05 14:05:54;;;;;;;10.20;8.40;;;;;;;;;;107824;1275;25469;-34
2022/12/05 14:08:56;;;;;;;8.80;6.40;;;;;;;;;;108054;1281;22567;-34
2022/12/05 14:11:29;;;;;;;9.30;7.90;;;;;;;;;;108062;1274;22631;-33
2022/12/05 14:14:01;;;;;;;9.50;7.40;;;;;;;;;;108123;1275;22595;-34
2022/12/05 14:16:51;;;;;;;8.90;7.10;;;;;;;;;;108122;1277;24918;-33
2022/12/05 14:19:47;;;;;;;9.70;6.80;;;;;;;;;;108020;1272;22568;-29
2022/12/05 14:22:50;;;;;;;8.60;6.60;;;;;;;;;;107927;1277;24901;-29
2022/12/05 14:25:38;;;;;;;8.90;6.70;;;;;;;;;;107985;1274;22574;-29
2022/12/05 14:28:26;;;;;;;11.80;8.80;;;;;;;;;;107996;1274;22592;-29
2022/12/05 14:31:19;;;;;;;9.60;7.10;;;;;;;;;;107967;1275;22584;-29
2022/12/05 14:34:13;;;;;;;10.10;7.70;;;;;;;;;;108046;1272;22551;-29
2022/12/05 14:37:00;;;;;;;10.00;7.30;;;;;;;;;;108071;1272;24451;-29
2022/12/05 14:39:42;;;;;;;8.70;6.60;;;;;;;;;;108068;1273;22580;-29
2022/12/05 14:42:28;;;;;;;9.10;7.30;;;;;;;;;;107946;1275;22609;-29
2022/12/05 14:45:21;;;;;;;10.90;8.00;;;;;;;;;;107988;1274;22616;-29
2022/12/05 14:47:58;;;;;;;10.20;7.90;;;;;;;;;;107991;1277;22576;-29
2022/12/05 14:50:43;;;;;;;10.00;7.70;;;;;;;;;;108003;1274;22630;-29
2022/12/05 14:53:37;;;;;;;10.70;8.90;;;;;;;;;;108187;1274;22577;-29
2022/12/05 14:56:17;;;;;;;10.50;7.30;;;;;;;;;;108053;1273;22765;-29
2022/12/05 14:58:56;;;;;;;10.90;7.60;;;;;;;;;;108021;1274;26447;-29
2022/12/05 15:01:31;;;;;;;10.80;7.80;;;;;;;;;;108026;1275;25282;-29
2022/12/05 15:04:22;;;;;;;11.00;7.90;;;;;;;;;;108029;1274;22709;-29
2022/12/05 15:06:57;;;;;;;10.20;7.30;;;;;;;;;;108000;1278;22586;-29
2022/12/05 15:09:55;;;;;;;11.10;8.10;;;;;;;;;;108017;1274;25227;-29
2022/12/05 15:12:33;;;;;;;10.10;8.00;;;;;;;;;;108064;1274;22565;-29
2022/12/05 15:15:16;;;;;;;10.00;8.60;;;;;;;;;;108059;1274;22564;-29
2022/12/05 15:17:51;;;;;;;9.80;7.10;;;;;;;;;;108060;1274;22651;-29
2022/12/05 15:20:38;;;;;;;9.00;7.00;;;;;;;;;;108051;1272;22655;-29
2022/12/05 15:23:44;;;;;;;10.30;7.50;;;;;;;;;;108008;1274;25633;-28
2022/12/05 15:26:27;;;;;;;9.80;7.30;;;;;;;;;;108021;1274;24809;-28
2022/12/05 15:29:09;;;;;;;9.00;7.10;;;;;;;;;;108026;1277;22576;-28
2022/12/05 15:31:48;;;;;;;9.00;6.90;;;;;;;;;;107996;1274;24188;-28
2022/12/05 15:34:25;;;;;;;9.00;6.70;;;;;;;;;;108146;1272;22564;-27
2022/12/05 15:37:04;;;;;;;9.50;6.60;;;;;;;;;;108068;1274;24579;-27
2022/12/05 15:39:55;;;;;;;8.80;6.50;;;;;;;;;;108067;1274;22721;-29
2022/12/05 15:42:31;;;;;;;8.90;6.90;;;;;;;;;;108041;1275;22588;-28
2022/12/05 15:45:22;;;;;;;9.80;6.70;;;;;;;;;;108022;1274;24956;-28
2022/12/05 15:47:58;;;;;;;10.10;7.00;;;;;;;;;;108011;1274;22569;-28
2022/12/05 15:50:36;;;;;;;11.60;6.80;;;;;;;;;;108037;1274;24051;-28
2022/12/05 15:53:11;;;;;;;9.50;7.60;;;;;;;;;;108016;1274;22571;-28